ΕΜΥ, Εθνική Μετεωρολογική Υπηρεσία - Δελτία Καιρού, Προγνώσεις

ΑΕΡΟΝΑΥΤΙΛΙΑ

GREEK AIRPORTS CODES

TAF LGTT 041000Z 0412/0421 06010KT 9999 FEW018 BKN025 TEMPO 0412/0418 5000 RA TEMPO 0412/0415 05015G25KT=

EUROPEAN AIRPORTS CODES

LKPR 042130Z 05005KT CAVOK 05/M01 Q1027 NOSIG=